createdAt,value
2017-08-29T00:00:39.373Z,22.80
2017-08-29T00:03:06.896Z,22.80
2017-08-29T00:05:34.418Z,22.70
2017-08-29T00:08:02.730Z,22.60
2017-08-29T00:10:30.249Z,22.60
2017-08-29T00:12:58.526Z,22.60
2017-08-29T00:15:26.054Z,22.60
2017-08-29T00:17:53.546Z,22.70
2017-08-29T00:20:21.046Z,22.70
2017-08-29T00:22:48.561Z,22.70
2017-08-29T00:25:16.064Z,22.60
2017-08-29T00:27:43.581Z,22.60
2017-08-29T00:30:11.141Z,22.50
2017-08-29T00:32:38.660Z,22.50
2017-08-29T00:35:06.157Z,22.50
2017-08-29T00:37:33.720Z,22.50
2017-08-29T00:40:01.230Z,22.50
2017-08-29T00:42:28.838Z,22.50
2017-08-29T00:44:56.351Z,22.50
2017-08-29T00:47:23.956Z,22.50
2017-08-29T00:49:51.496Z,22.50
2017-08-29T00:52:19.012Z,22.50
2017-08-29T00:54:46.513Z,22.50
2017-08-29T00:57:14.083Z,22.40
2017-08-29T00:59:42.388Z,22.40
2017-08-29T01:02:09.893Z,22.40
2017-08-29T01:04:37.435Z,22.40
2017-08-29T01:07:04.933Z,22.40
2017-08-29T01:09:32.456Z,22.40
2017-08-29T01:11:59.957Z,22.40
2017-08-29T01:14:27.472Z,22.40
2017-08-29T01:16:54.996Z,22.30
2017-08-29T01:19:22.525Z,22.30
2017-08-29T01:21:50.049Z,22.30
2017-08-29T01:24:17.538Z,22.30
2017-08-29T01:26:45.104Z,22.30
2017-08-29T01:29:12.633Z,22.20
2017-08-29T01:31:40.128Z,22.20
2017-08-29T01:34:07.917Z,22.20
2017-08-29T01:36:35.432Z,22.20
2017-08-29T01:39:02.955Z,22.20
2017-08-29T01:41:30.554Z,22.20
2017-08-29T01:43:58.058Z,22.20
2017-08-29T01:46:25.556Z,22.10
2017-08-29T01:48:53.084Z,22.10
2017-08-29T01:51:20.686Z,22.10
2017-08-29T01:53:48.671Z,22.10
2017-08-29T01:56:16.188Z,22.10
2017-08-29T01:58:43.707Z,22.00
2017-08-29T02:01:11.317Z,22.00
2017-08-29T02:03:38.824Z,21.90
2017-08-29T02:06:06.313Z,21.90
2017-08-29T02:08:33.852Z,21.90
2017-08-29T02:11:01.348Z,21.80
2017-08-29T02:13:28.905Z,21.90
2017-08-29T02:15:56.405Z,21.90
2017-08-29T02:18:23.929Z,21.90
2017-08-29T02:20:51.576Z,21.90
2017-08-29T02:23:19.073Z,21.80
2017-08-29T02:25:46.591Z,21.80
2017-08-29T02:28:14.088Z,21.80
2017-08-29T02:30:41.716Z,21.80
2017-08-29T02:33:09.293Z,21.70
2017-08-29T02:35:36.831Z,21.80
2017-08-29T02:38:04.352Z,21.70
2017-08-29T02:40:31.849Z,21.70
2017-08-29T02:42:59.367Z,21.70
2017-08-29T02:45:26.961Z,21.70
2017-08-29T02:47:54.524Z,21.70
2017-08-29T02:50:22.041Z,21.60
2017-08-29T02:52:49.540Z,21.60
2017-08-29T02:55:17.087Z,21.60
2017-08-29T02:57:44.657Z,21.60
2017-08-29T03:00:12.159Z,21.60
2017-08-29T03:02:39.657Z,21.50
2017-08-29T03:05:07.181Z,21.50
2017-08-29T03:07:34.785Z,21.50
2017-08-29T03:10:02.313Z,21.40
2017-08-29T03:12:29.813Z,21.40
2017-08-29T03:14:57.307Z,21.40
2017-08-29T03:17:24.920Z,21.40
2017-08-29T03:19:52.430Z,21.40
2017-08-29T03:22:19.999Z,21.40
2017-08-29T03:24:47.506Z,21.40
2017-08-29T03:27:15.048Z,21.40
2017-08-29T03:29:42.603Z,21.40
2017-08-29T03:32:10.163Z,21.40
2017-08-29T03:34:37.712Z,21.40
2017-08-29T03:37:05.201Z,21.40
2017-08-29T03:39:32.688Z,21.30
2017-08-29T03:42:00.300Z,21.30
2017-08-29T03:44:27.861Z,21.30
2017-08-29T03:46:55.412Z,21.30
2017-08-29T03:49:22.928Z,21.30
2017-08-29T03:51:50.472Z,21.30
2017-08-29T03:54:17.970Z,21.20
2017-08-29T03:56:45.461Z,21.20
2017-08-29T03:59:12.974Z,21.10
2017-08-29T04:01:40.553Z,21.10
2017-08-29T04:04:08.078Z,21.10
2017-08-29T04:06:35.614Z,21.10
2017-08-29T04:09:03.136Z,21.10
2017-08-29T04:11:30.692Z,21.10
2017-08-29T04:13:58.204Z,21.10
2017-08-29T04:16:25.800Z,21.10
2017-08-29T04:18:53.324Z,21.10
2017-08-29T04:21:20.837Z,21.10
2017-08-29T04:23:48.352Z,21.10
2017-08-29T04:26:15.939Z,21.10
2017-08-29T04:28:43.500Z,21.00
2017-08-29T04:31:11.033Z,20.90
2017-08-29T04:33:38.617Z,21.00
2017-08-29T04:36:06.123Z,20.90
2017-08-29T04:38:33.645Z,20.90
2017-08-29T04:41:01.146Z,20.90
2017-08-29T04:43:28.683Z,20.90
2017-08-29T04:45:56.205Z,20.90
2017-08-29T04:48:23.709Z,20.90
2017-08-29T04:50:51.222Z,20.90
2017-08-29T04:53:18.756Z,20.90
2017-08-29T04:55:46.325Z,20.90
2017-08-29T04:58:13.826Z,20.90
2017-08-29T05:00:41.324Z,20.90
2017-08-29T05:03:08.841Z,20.90
2017-08-29T05:05:36.361Z,20.90
2017-08-29T05:08:03.875Z,20.90
2017-08-29T05:10:31.413Z,20.90
2017-08-29T05:12:58.939Z,20.90
2017-08-29T05:15:26.464Z,21.00
2017-08-29T05:17:53.956Z,21.00
2017-08-29T05:20:21.465Z,21.00
2017-08-29T05:22:49.060Z,21.00
2017-08-29T05:25:16.561Z,21.00
2017-08-29T05:27:44.132Z,21.00
2017-08-29T05:30:11.636Z,21.00
2017-08-29T05:32:39.167Z,20.90
2017-08-29T05:35:06.674Z,20.80
2017-08-29T05:37:34.313Z,20.80
2017-08-29T05:40:01.869Z,20.70
2017-08-29T05:42:29.356Z,20.70
2017-08-29T05:44:56.896Z,20.70
2017-08-29T05:47:24.436Z,20.80
2017-08-29T05:49:51.950Z,20.80
2017-08-29T05:52:19.465Z,20.80
2017-08-29T05:54:46.996Z,20.80
2017-08-29T05:57:14.528Z,20.80
2017-08-29T05:59:42.022Z,20.70
2017-08-29T06:02:09.526Z,20.60
2017-08-29T06:04:37.041Z,20.50
2017-08-29T06:07:04.578Z,20.50
2017-08-29T06:09:32.074Z,20.50
2017-08-29T06:11:59.581Z,20.50
2017-08-29T06:14:27.103Z,20.60
2017-08-29T06:16:54.625Z,20.70
2017-08-29T06:19:22.145Z,20.70
2017-08-29T06:21:49.661Z,20.70
2017-08-29T06:24:17.182Z,20.70
2017-08-29T06:26:44.717Z,20.80
2017-08-29T06:29:12.220Z,20.80
2017-08-29T06:31:39.737Z,20.90
2017-08-29T06:34:07.268Z,20.90
2017-08-29T06:36:34.769Z,20.90
2017-08-29T06:39:02.317Z,21.00
2017-08-29T06:41:29.904Z,21.10
2017-08-29T06:43:57.405Z,21.10
2017-08-29T06:46:24.937Z,21.20
2017-08-29T06:48:52.440Z,21.20
2017-08-29T06:51:20.009Z,21.20
2017-08-29T06:53:47.605Z,21.40
2017-08-29T06:56:15.112Z,21.40
2017-08-29T06:58:42.633Z,21.40
2017-08-29T07:01:10.170Z,21.50
2017-08-29T07:03:37.691Z,21.60
2017-08-29T07:06:05.201Z,21.60
2017-08-29T07:08:32.727Z,21.60
2017-08-29T07:11:00.306Z,21.70
2017-08-29T07:13:27.825Z,21.80
2017-08-29T07:15:55.328Z,21.90
2017-08-29T07:18:22.845Z,22.00
2017-08-29T07:20:50.368Z,22.00
2017-08-29T07:23:17.896Z,22.20
2017-08-29T07:25:45.417Z,22.30
2017-08-29T07:28:13.010Z,22.30
2017-08-29T07:30:40.536Z,22.40
2017-08-29T07:33:08.030Z,22.40
2017-08-29T07:35:35.533Z,22.40
2017-08-29T07:38:03.068Z,22.50
2017-08-29T07:40:30.573Z,22.50
2017-08-29T07:42:58.112Z,22.60
2017-08-29T07:45:25.611Z,22.60
2017-08-29T07:47:53.166Z,22.70
2017-08-29T07:50:20.692Z,22.80
2017-08-29T07:52:48.207Z,22.90
2017-08-29T07:55:15.736Z,23.00
2017-08-29T07:57:43.292Z,23.10
2017-08-29T08:00:10.813Z,23.10
2017-08-29T08:02:38.304Z,23.20
2017-08-29T08:05:05.879Z,23.20
2017-08-29T08:07:33.377Z,23.30
2017-08-29T08:10:00.880Z,23.40
2017-08-29T08:12:28.396Z,23.50
2017-08-29T08:14:55.909Z,23.60
2017-08-29T08:17:23.451Z,23.80
2017-08-29T08:19:50.959Z,23.90
2017-08-29T08:22:18.486Z,24.00
2017-08-29T08:24:46.025Z,24.00
2017-08-29T08:27:13.536Z,24.10
2017-08-29T08:29:41.028Z,24.20
2017-08-29T08:32:08.560Z,24.30
2017-08-29T08:34:36.057Z,24.30
2017-08-29T08:37:03.553Z,24.40
2017-08-29T08:39:31.080Z,24.50
2017-08-29T08:41:58.607Z,24.50
2017-08-29T08:44:26.156Z,24.60
2017-08-29T08:46:53.653Z,24.70
2017-08-29T08:49:21.208Z,24.80
2017-08-29T08:51:48.756Z,24.90
2017-08-29T08:54:16.253Z,25.00
2017-08-29T08:56:43.804Z,25.10
2017-08-29T08:59:11.307Z,25.20
2017-08-29T09:01:38.825Z,25.30
2017-08-29T09:04:06.345Z,25.50
2017-08-29T09:06:33.872Z,25.60
2017-08-29T09:09:01.368Z,25.70
2017-08-29T09:11:28.925Z,25.80
2017-08-29T09:13:56.465Z,25.90
2017-08-29T09:16:23.967Z,26.10
2017-08-29T09:18:51.464Z,26.20
2017-08-29T09:21:18.989Z,26.30
2017-08-29T09:23:46.493Z,26.40
2017-08-29T09:26:14.068Z,26.40
2017-08-29T09:28:41.595Z,26.50
2017-08-29T09:31:09.099Z,26.60
2017-08-29T09:33:36.656Z,26.60
2017-08-29T09:36:04.160Z,26.60
2017-08-29T09:38:31.669Z,26.60
2017-08-29T09:40:59.193Z,26.60
2017-08-29T09:43:26.688Z,26.70
2017-08-29T09:45:54.236Z,26.80
2017-08-29T09:48:21.750Z,26.90
2017-08-29T09:50:49.252Z,27.00
2017-08-29T09:53:16.779Z,27.10
2017-08-29T09:55:44.285Z,27.20
2017-08-29T09:58:11.820Z,27.20
2017-08-29T10:00:39.318Z,27.20
2017-08-29T10:03:06.832Z,27.30
2017-08-29T10:05:34.362Z,27.50
2017-08-29T10:08:01.864Z,27.50
2017-08-29T10:10:29.396Z,27.70
2017-08-29T10:12:56.915Z,27.70
2017-08-29T10:15:24.524Z,27.70
2017-08-29T10:17:52.018Z,27.90
2017-08-29T10:20:19.515Z,28.00
2017-08-29T10:22:47.033Z,28.10
2017-08-29T10:25:14.540Z,28.10
2017-08-29T10:27:42.109Z,28.10
2017-08-29T10:30:09.616Z,28.20
2017-08-29T10:32:37.137Z,28.40
2017-08-29T10:35:04.676Z,28.60
2017-08-29T10:37:32.217Z,28.70
2017-08-29T10:39:59.739Z,28.80
2017-08-29T10:42:27.231Z,28.90
2017-08-29T10:44:54.760Z,29.10
2017-08-29T10:47:22.244Z,29.30
2017-08-29T10:49:50.605Z,29.40
2017-08-29T10:52:18.140Z,29.50
2017-08-29T10:54:45.640Z,29.60
2017-08-29T10:57:13.233Z,29.60
2017-08-29T10:59:40.739Z,29.70
2017-08-29T11:02:08.233Z,29.90
2017-08-29T11:04:35.753Z,30.10
2017-08-29T11:07:03.267Z,30.00
2017-08-29T11:09:30.775Z,30.00
2017-08-29T11:11:58.309Z,30.10
2017-08-29T11:14:25.812Z,30.20
2017-08-29T11:16:53.337Z,30.30
2017-08-29T11:19:20.825Z,30.30
2017-08-29T11:21:48.336Z,30.20
2017-08-29T11:24:15.825Z,30.40
2017-08-29T11:26:43.364Z,30.60
2017-08-29T11:29:10.863Z,30.90
2017-08-29T11:31:38.349Z,31.10
2017-08-29T11:34:05.889Z,31.30
2017-08-29T11:36:33.393Z,31.30
2017-08-29T11:39:00.888Z,31.30
2017-08-29T11:41:28.401Z,31.50
2017-08-29T11:43:55.949Z,31.70
2017-08-29T11:46:23.436Z,31.70
2017-08-29T11:48:50.927Z,31.80
2017-08-29T11:51:18.452Z,31.90
2017-08-29T11:53:45.951Z,32.10
2017-08-29T11:56:13.440Z,32.20
2017-08-29T11:58:40.957Z,32.30
2017-08-29T12:01:08.456Z,32.50
2017-08-29T12:03:35.960Z,32.70
2017-08-29T12:06:03.472Z,32.90
2017-08-29T12:08:30.956Z,32.90
2017-08-29T12:10:58.472Z,33.10
2017-08-29T12:13:25.961Z,33.20
2017-08-29T12:15:53.456Z,33.10
2017-08-29T12:18:20.984Z,33.10
2017-08-29T12:20:48.484Z,33.30
2017-08-29T12:23:16.032Z,33.50
2017-08-29T12:25:43.529Z,33.40
2017-08-29T12:28:11.069Z,33.40
2017-08-29T12:30:38.583Z,33.30
2017-08-29T12:33:06.164Z,33.30
2017-08-29T12:35:33.692Z,33.50
2017-08-29T12:38:01.273Z,33.60
2017-08-29T12:40:28.859Z,33.90
2017-08-29T12:42:56.381Z,34.20
2017-08-29T12:45:23.871Z,34.40
2017-08-29T12:47:51.391Z,34.40
2017-08-29T12:50:18.973Z,34.40
2017-08-29T12:52:46.467Z,34.40
2017-08-29T12:55:13.980Z,34.50
2017-08-29T12:57:41.489Z,34.40
2017-08-29T13:00:09.106Z,34.30
2017-08-29T13:02:36.607Z,34.50
2017-08-29T13:05:04.130Z,34.50
2017-08-29T13:07:31.630Z,34.60
2017-08-29T13:09:59.127Z,34.70
2017-08-29T13:12:26.652Z,34.80
2017-08-29T13:14:54.153Z,34.80
2017-08-29T13:17:21.673Z,34.60
2017-08-29T13:19:49.185Z,34.60
2017-08-29T13:22:16.701Z,34.60
2017-08-29T13:24:44.243Z,34.80
2017-08-29T13:27:11.765Z,34.90
2017-08-29T13:29:39.292Z,35.00
2017-08-29T13:32:06.828Z,34.90
2017-08-29T13:34:34.334Z,34.70
2017-08-29T13:37:01.846Z,34.70
2017-08-29T13:39:29.382Z,34.60
2017-08-29T13:41:56.876Z,34.60
2017-08-29T13:44:24.382Z,34.60
2017-08-29T13:46:51.976Z,34.80
2017-08-29T13:49:19.563Z,34.90
2017-08-29T13:51:47.066Z,35.00
2017-08-29T13:54:14.560Z,35.30
2017-08-29T13:56:42.083Z,35.50
2017-08-29T13:59:09.596Z,35.60
2017-08-29T14:01:37.125Z,35.60
2017-08-29T14:04:04.621Z,35.60
2017-08-29T14:06:32.118Z,35.60
2017-08-29T14:08:59.632Z,35.50
2017-08-29T14:11:27.138Z,35.40
2017-08-29T14:13:54.628Z,35.20
2017-08-29T14:16:22.148Z,35.10
2017-08-29T14:18:49.684Z,35.10
2017-08-29T14:21:17.188Z,35.10
2017-08-29T14:23:44.677Z,35.10
2017-08-29T14:26:12.320Z,35.20
2017-08-29T14:28:39.865Z,35.40
2017-08-29T14:31:08.116Z,35.60
2017-08-29T14:33:35.629Z,35.60
2017-08-29T14:36:03.206Z,35.30
2017-08-29T14:38:30.713Z,34.90
2017-08-29T14:40:58.243Z,34.90
2017-08-29T14:43:25.744Z,34.80
2017-08-29T14:45:53.263Z,34.90
2017-08-29T14:48:32.857Z,34.70
2017-08-29T14:51:00.491Z,34.70
2017-08-29T14:53:27.984Z,34.80
2017-08-29T14:55:55.505Z,34.60
2017-08-29T14:58:23.067Z,34.60
2017-08-29T15:00:50.577Z,34.50
2017-08-29T15:03:18.125Z,34.60
2017-08-29T15:05:45.752Z,34.50
2017-08-29T15:08:13.249Z,34.50
2017-08-29T15:10:40.857Z,34.60
2017-08-29T15:13:08.374Z,34.60
2017-08-29T15:15:35.930Z,34.60
2017-08-29T15:18:03.446Z,34.70
2017-08-29T15:20:30.946Z,34.80
2017-08-29T15:22:58.471Z,34.90
2017-08-29T15:25:26.000Z,34.70
2017-08-29T15:27:53.508Z,34.60
2017-08-29T15:30:21.041Z,34.30
2017-08-29T15:32:48.551Z,34.00
2017-08-29T15:35:16.146Z,33.90
2017-08-29T15:37:43.668Z,34.00
2017-08-29T15:40:11.170Z,34.00
2017-08-29T15:42:38.686Z,34.00
2017-08-29T15:45:06.177Z,34.00
2017-08-29T15:47:33.732Z,34.00
2017-08-29T15:50:01.269Z,34.00
2017-08-29T15:52:28.832Z,33.80
2017-08-29T15:54:56.337Z,33.70
2017-08-29T15:57:23.853Z,33.70
2017-08-29T15:59:51.354Z,33.70
2017-08-29T16:02:18.974Z,33.70
2017-08-29T16:04:46.517Z,33.50
2017-08-29T16:07:14.041Z,33.40
2017-08-29T16:09:41.560Z,33.30
2017-08-29T16:12:09.060Z,33.20
2017-08-29T16:14:36.580Z,33.10
2017-08-29T16:17:04.142Z,33.00
2017-08-29T16:19:31.661Z,32.90
2017-08-29T16:21:59.169Z,32.80
2017-08-29T16:24:26.682Z,32.70
2017-08-29T16:26:54.245Z,32.60
2017-08-29T16:29:21.736Z,32.40
2017-08-29T16:31:49.237Z,32.40
2017-08-29T16:34:16.751Z,32.20
2017-08-29T16:36:44.380Z,32.10
2017-08-29T16:39:12.012Z,32.00
2017-08-29T16:41:40.324Z,31.80
2017-08-29T16:44:07.825Z,31.80
2017-08-29T16:46:35.340Z,31.60
2017-08-29T16:49:02.900Z,31.60
2017-08-29T16:51:30.404Z,31.40
2017-08-29T16:53:57.940Z,31.30
2017-08-29T16:56:25.522Z,31.20
2017-08-29T16:58:53.031Z,31.10
2017-08-29T17:01:20.542Z,31.10
2017-08-29T17:03:48.113Z,31.10
2017-08-29T17:06:15.599Z,31.00
2017-08-29T17:08:43.115Z,30.90
2017-08-29T17:11:10.637Z,30.80
2017-08-29T17:13:38.209Z,30.70
2017-08-29T17:16:05.814Z,30.60
2017-08-29T17:18:33.332Z,30.60
2017-08-29T17:21:00.942Z,30.50
2017-08-29T17:23:28.482Z,30.40
2017-08-29T17:25:55.989Z,30.30
2017-08-29T17:28:23.549Z,30.20
2017-08-29T17:30:51.048Z,30.10
2017-08-29T17:33:18.645Z,30.10
2017-08-29T17:35:46.203Z,30.00
2017-08-29T17:38:13.754Z,29.90
2017-08-29T17:40:41.301Z,29.90
2017-08-29T17:43:08.876Z,29.80
2017-08-29T17:45:36.407Z,29.80
2017-08-29T17:48:03.911Z,29.70
2017-08-29T17:50:31.406Z,29.70
2017-08-29T17:52:58.928Z,29.70
2017-08-29T17:55:26.432Z,29.60
2017-08-29T17:57:53.960Z,29.60
2017-08-29T18:00:21.485Z,29.50
2017-08-29T18:02:49.009Z,29.40
2017-08-29T18:05:16.595Z,29.30
2017-08-29T18:07:44.129Z,29.30
2017-08-29T18:10:11.622Z,29.20
2017-08-29T18:12:39.137Z,29.10
2017-08-29T18:15:06.665Z,29.00
2017-08-29T18:17:34.189Z,28.90
2017-08-29T18:20:01.688Z,28.80
2017-08-29T18:22:29.209Z,28.80
2017-08-29T18:24:56.713Z,28.70
2017-08-29T18:27:24.244Z,28.70
2017-08-29T18:29:51.784Z,28.70
2017-08-29T18:32:19.347Z,28.60
2017-08-29T18:34:46.885Z,28.60
2017-08-29T18:37:14.381Z,28.50
2017-08-29T18:39:41.933Z,28.40
2017-08-29T18:42:09.567Z,28.30
2017-08-29T18:44:37.069Z,28.20
2017-08-29T18:47:04.594Z,28.10
2017-08-29T18:49:32.152Z,28.00
2017-08-29T18:51:59.697Z,27.90
2017-08-29T18:54:27.264Z,27.70
2017-08-29T18:56:54.829Z,27.70
2017-08-29T18:59:22.350Z,27.60
2017-08-29T19:01:49.882Z,27.50
2017-08-29T19:04:17.484Z,27.50
2017-08-29T19:06:45.026Z,27.40
2017-08-29T19:09:12.555Z,27.30
2017-08-29T19:11:40.088Z,27.30
2017-08-29T19:14:07.594Z,27.20
2017-08-29T19:16:35.143Z,27.20
2017-08-29T19:19:02.647Z,27.10
2017-08-29T19:21:30.152Z,27.00
2017-08-29T19:23:57.664Z,26.90
2017-08-29T19:26:25.190Z,26.80
2017-08-29T19:28:52.742Z,26.80
2017-08-29T19:31:20.246Z,26.70
2017-08-29T19:33:48.145Z,26.70
2017-08-29T19:36:15.657Z,26.60
2017-08-29T19:38:43.141Z,26.50
2017-08-29T19:41:10.672Z,26.50
2017-08-29T19:43:38.243Z,26.40
2017-08-29T19:46:05.881Z,26.30
2017-08-29T19:48:33.393Z,26.30
2017-08-29T19:51:00.952Z,26.30
2017-08-29T19:53:28.554Z,26.20
2017-08-29T19:55:56.060Z,26.10
2017-08-29T19:58:23.626Z,26.10
2017-08-29T20:00:51.122Z,26.00
2017-08-29T20:03:18.654Z,25.90
2017-08-29T20:05:46.225Z,25.80
2017-08-29T20:08:13.733Z,25.80
2017-08-29T20:10:41.261Z,25.70
2017-08-29T20:13:08.826Z,25.60
2017-08-29T20:15:36.361Z,25.60
2017-08-29T20:18:03.861Z,25.60
2017-08-29T20:20:31.480Z,25.60
2017-08-29T20:22:58.985Z,25.50
2017-08-29T20:25:26.496Z,25.50
2017-08-29T20:27:54.023Z,25.50
2017-08-29T20:30:21.537Z,25.50
2017-08-29T20:32:49.104Z,25.50
2017-08-29T20:35:16.609Z,25.40
2017-08-29T20:37:44.182Z,25.40
2017-08-29T20:40:11.726Z,25.30
2017-08-29T20:42:39.249Z,25.30
2017-08-29T20:45:06.773Z,25.20
2017-08-29T20:47:34.285Z,25.10
2017-08-29T20:50:01.823Z,25.10
2017-08-29T20:52:29.358Z,25.00
2017-08-29T20:54:56.863Z,25.00
2017-08-29T20:57:24.373Z,25.00
2017-08-29T20:59:51.923Z,25.00
2017-08-29T21:02:19.456Z,25.00
2017-08-29T21:04:46.998Z,24.90
2017-08-29T21:07:14.507Z,24.90
2017-08-29T21:09:42.053Z,24.90
2017-08-29T21:12:09.614Z,24.80
2017-08-29T21:14:37.136Z,24.80
2017-08-29T21:17:04.723Z,24.70
2017-08-29T21:19:32.253Z,24.60
2017-08-29T21:22:00.512Z,24.50
2017-08-29T21:24:28.103Z,24.50
2017-08-29T21:26:55.612Z,24.50
2017-08-29T21:29:23.145Z,24.50
2017-08-29T21:31:50.675Z,24.50
2017-08-29T21:34:18.196Z,24.40
2017-08-29T21:36:45.733Z,24.40
2017-08-29T21:39:13.243Z,24.40
2017-08-29T21:41:40.785Z,24.40
2017-08-29T21:44:09.058Z,24.20
2017-08-29T21:46:36.578Z,24.20
2017-08-29T21:49:04.184Z,24.10
2017-08-29T21:51:32.465Z,24.00
2017-08-29T21:54:00.797Z,24.00
2017-08-29T21:56:28.314Z,24.00
2017-08-29T21:58:55.844Z,24.00
2017-08-29T22:01:23.980Z,23.90
2017-08-29T22:03:51.507Z,24.00
2017-08-29T22:06:19.066Z,24.00
2017-08-29T22:08:46.616Z,24.00
2017-08-29T22:11:14.152Z,23.90
2017-08-29T22:13:41.656Z,23.90
2017-08-29T22:16:09.180Z,23.80
2017-08-29T22:18:36.677Z,23.80
2017-08-29T22:21:04.205Z,23.80
2017-08-29T22:23:31.729Z,23.70
2017-08-29T22:25:59.312Z,23.70
2017-08-29T22:28:26.819Z,23.70
2017-08-29T22:30:54.327Z,23.70
2017-08-29T22:33:21.882Z,23.70
2017-08-29T22:35:49.390Z,23.70
2017-08-29T22:38:16.904Z,23.60
2017-08-29T22:40:44.410Z,23.60
2017-08-29T22:43:11.942Z,23.60
2017-08-29T22:45:39.465Z,23.60
2017-08-29T22:48:06.976Z,23.50
2017-08-29T22:50:34.591Z,23.50
2017-08-29T22:53:02.090Z,23.50
2017-08-29T22:55:29.590Z,23.40
2017-08-29T22:57:57.154Z,23.40
2017-08-29T23:00:24.662Z,23.40
2017-08-29T23:02:52.298Z,23.40
2017-08-29T23:05:19.795Z,23.30
2017-08-29T23:07:47.300Z,23.30
2017-08-29T23:10:14.826Z,23.20
2017-08-29T23:12:42.317Z,23.10
2017-08-29T23:15:09.873Z,23.10
2017-08-29T23:17:37.436Z,23.10
2017-08-29T23:20:04.980Z,23.10
2017-08-29T23:22:32.473Z,23.10
2017-08-29T23:25:00.007Z,23.10
2017-08-29T23:27:27.556Z,23.10
2017-08-29T23:29:55.084Z,23.00
2017-08-29T23:32:22.603Z,23.00
2017-08-29T23:34:50.129Z,23.00
2017-08-29T23:37:17.649Z,23.00
2017-08-29T23:39:45.191Z,22.90
2017-08-29T23:42:12.710Z,22.90
